Time;durP1;ratioP1;P1;durP2;ratioP2;P2;SDS_P1;SDS_P2;PMS_P1;PMS_P2;Temp;Humidity;BMP_temperature;BMP_pressure;BME280_temperature;BME280_humidity;BME280_pressure;Samples;Min_cycle;Max_cycle;Signal;HPM_P1;HPM_P2
2023/02/11 00:01:26;;;;;;;24.27;17.90;;;-3.70;99.90;;;;;;4909543;29;20562;-81
2023/02/11 00:03:58;;;;;;;36.25;24.40;;;-4.00;99.90;;;;;;4943879;29;20051;-82
2023/02/11 00:06:27;;;;;;;40.30;22.95;;;-4.10;99.90;;;;;;4913075;29;20046;-82
2023/02/11 00:08:56;;;;;;;39.30;21.23;;;-4.10;99.90;;;;;;4915882;29;20055;-82
2023/02/11 00:11:29;;;;;;;32.22;18.13;;;-4.00;99.90;;;;;;4928763;29;20051;-82
2023/02/11 00:13:59;;;;;;;32.38;20.20;;;-4.00;99.90;;;;;;4928679;28;20055;-82
2023/02/11 00:16:28;;;;;;;27.42;16.67;;;-4.00;99.90;;;;;;4911923;28;20055;-82
2023/02/11 00:19:00;;;;;;;30.77;19.98;;;-4.10;99.90;;;;;;4929034;29;20056;-82
2023/02/11 00:21:28;;;;;;;37.83;18.15;;;-4.20;99.90;;;;;;4912905;29;20043;-82
2023/02/11 00:23:56;;;;;;;47.97;21.25;;;-4.20;99.90;;;;;;4920709;29;20059;-82
2023/02/11 00:26:28;;;;;;;35.70;21.15;;;-4.10;99.90;;;;;;4900823;29;20040;-83
2023/02/11 00:28:57;;;;;;;41.03;22.73;;;-4.10;99.90;;;;;;4928262;29;20491;-83
2023/02/11 00:31:25;;;;;;;32.03;20.17;;;-4.00;99.90;;;;;;4930099;29;20047;-82
2023/02/11 00:33:53;;;;;;;39.03;18.40;;;-3.90;99.90;;;;;;4916059;29;20047;-82
2023/02/11 00:36:24;;;;;;;34.70;18.92;;;-3.90;99.90;;;;;;4929798;29;20047;-82
2023/02/11 00:38:52;;;;;;;30.58;18.90;;;-3.90;99.90;;;;;;4931774;29;20060;-82
2023/02/11 00:41:22;;;;;;;30.20;17.15;;;-3.80;99.90;;;;;;4914207;29;20051;-82
2023/02/11 00:43:51;;;;;;;30.13;16.63;;;-3.80;99.90;;;;;;4942585;29;20051;-82
2023/02/11 00:46:19;;;;;;;20.80;12.80;;;-3.80;99.90;;;;;;4928242;29;20396;-82
2023/02/11 00:48:47;;;;;;;22.98;14.77;;;-3.70;99.90;;;;;;4945374;28;20047;-82
2023/02/11 00:51:15;;;;;;;27.13;14.75;;;-3.70;99.90;;;;;;4936158;29;20062;-82
2023/02/11 00:53:43;;;;;;;23.45;15.00;;;-3.70;99.90;;;;;;4933217;29;20419;-82
2023/02/11 00:56:11;;;;;;;28.67;14.98;;;-3.70;99.90;;;;;;4931194;29;20066;-82
2023/02/11 00:58:38;;;;;;;22.58;16.95;;;-3.80;99.90;;;;;;4947873;29;20063;-82
2023/02/11 01:01:06;;;;;;;37.90;21.20;;;-3.90;99.90;;;;;;4932907;29;20436;-82
2023/02/11 01:03:34;;;;;;;30.83;17.65;;;-4.10;99.90;;;;;;4940090;29;20513;-82
2023/02/11 01:06:03;;;;;;;28.92;21.13;;;-4.20;99.90;;;;;;4918302;29;20051;-82
2023/02/11 01:08:31;;;;;;;28.58;18.30;;;-4.20;99.90;;;;;;4947181;29;20424;-82
2023/02/11 01:11:03;;;;;;;33.40;17.98;;;-4.30;99.90;;;;;;4914743;29;20066;-82
2023/02/11 01:13:34;;;;;;;35.50;20.55;;;-4.30;99.90;;;;;;4915386;29;20055;-82
2023/02/11 01:16:02;;;;;;;29.63;18.20;;;-4.20;99.90;;;;;;4940867;29;20067;-82
2023/02/11 01:18:30;;;;;;;31.80;19.52;;;-4.20;99.90;;;;;;4932737;29;20043;-82
2023/02/11 01:21:01;;;;;;;21.52;13.63;;;-4.10;99.90;;;;;;4920436;29;20424;-82
2023/02/11 01:23:29;;;;;;;23.42;13.98;;;-4.10;99.90;;;;;;4915243;29;20493;-83
2023/02/11 01:25:57;;;;;;;21.20;13.77;;;-4.10;99.90;;;;;;4931155;29;20047;-82
2023/02/11 01:28:28;;;;;;;29.65;15.00;;;-4.00;99.90;;;;;;4948090;29;20078;-82
2023/02/11 01:30:56;;;;;;;27.47;15.77;;;-4.10;99.90;;;;;;4922526;29;20413;-82
2023/02/11 01:33:25;;;;;;;21.27;15.23;;;-4.10;99.90;;;;;;4941264;29;20637;-82
2023/02/11 01:35:52;;;;;;;32.88;13.80;;;-4.20;99.90;;;;;;4919207;29;20062;-82
2023/02/11 01:38:25;;;;;;;26.77;17.08;;;-4.50;99.90;;;;;;4929861;29;20048;-82
2023/02/11 01:40:59;;;;;;;26.40;14.65;;;-4.50;99.90;;;;;;4917483;29;20051;-82
2023/02/11 01:43:45;;;;;;;31.33;17.52;;;-4.40;99.90;;;;;;4927892;29;20055;-82
2023/02/11 01:46:33;;;;;;;26.40;15.95;;;-4.40;99.90;;;;;;4946165;28;20054;-82
2023/02/11 01:49:17;;;;;;;23.27;15.30;;;-4.70;99.90;;;;;;4941875;29;20047;-82
2023/02/11 01:52:02;;;;;;;31.70;17.80;;;-4.80;99.90;;;;;;4926108;29;20067;-82
2023/02/11 01:57:24;;;;;;;26.48;15.52;;;-4.80;99.90;;;;;;4930909;29;20036;-82
2023/02/11 02:00:22;;;;;;;24.30;15.60;;;-4.80;99.90;;;;;;4930964;29;20079;-82
2023/02/11 02:03:13;;;;;;;24.98;15.40;;;-4.80;99.90;;;;;;4896624;29;20059;-82
2023/02/11 02:05:55;;;;;;;27.35;17.98;;;-4.70;99.90;;;;;;4911858;29;20782;-82
2023/02/11 02:08:34;;;;;;;27.63;17.58;;;-4.50;99.90;;;;;;4950382;29;20047;-82
2023/02/11 02:11:03;;;;;;;25.77;15.38;;;-4.50;99.90;;;;;;4914259;29;20066;-82
2023/02/11 02:13:32;;;;;;;22.33;15.35;;;-4.70;99.90;;;;;;4943335;28;20056;-82
2023/02/11 02:16:06;;;;;;;26.73;16.00;;;-5.00;99.90;;;;;;4940572;29;20124;-82
2023/02/11 02:18:48;;;;;;;18.02;12.60;;;-4.90;99.90;;;;;;4933802;29;20055;-82
2023/02/11 02:21:21;;;;;;;;;;;-4.70;99.90;;;;;;4943968;28;20051;-82
2023/02/11 02:24:07;;;;;;;30.17;19.08;;;-4.50;99.90;;;;;;4933088;29;19926;-82
2023/02/11 02:27:09;;;;;;;27.83;16.17;;;-4.50;99.90;;;;;;4950369;29;20058;-82
2023/02/11 02:30:08;;;;;;;22.83;14.10;;;-4.50;99.90;;;;;;4947038;29;20044;-82
2023/02/11 02:32:45;;;;;;;27.27;18.58;;;-4.90;99.90;;;;;;4945939;28;20047;-82
2023/02/11 02:35:31;;;;;;;23.80;14.32;;;-5.00;99.90;;;;;;4930312;29;20056;-82
2023/02/11 02:38:05;;;;;;;22.65;15.55;;;-5.00;99.90;;;;;;4940659;29;20055;-82
2023/02/11 02:40:44;;;;;;;25.02;15.48;;;-5.00;99.90;;;;;;4932336;28;20051;-82
2023/02/11 02:43:13;;;;;;;23.65;14.85;;;-5.00;99.90;;;;;;4945389;29;20136;-83
2023/02/11 02:45:41;;;;;;;18.95;15.10;;;-5.00;99.90;;;;;;4932976;29;20039;-82
2023/02/11 02:48:29;;;;;;;22.92;14.60;;;-5.00;99.90;;;;;;4933455;29;20769;-82
2023/02/11 02:51:14;;;;;;;24.55;16.75;;;-5.00;99.90;;;;;;4888214;29;20058;-82
2023/02/11 02:54:03;;;;;;;22.85;16.63;;;-4.90;99.90;;;;;;4944318;28;20050;-82
2023/02/11 02:56:40;;;;;;;18.85;14.70;;;-4.80;99.90;;;;;;4947115;28;20039;-82
2023/02/11 02:59:34;;;;;;;20.25;13.30;;;-4.80;99.90;;;;;;4947040;29;20054;-82
2023/02/11 03:02:25;;;;;;;25.65;13.63;;;-4.80;99.90;;;;;;4950262;28;20062;-82
2023/02/11 03:05:11;;;;;;;19.33;12.23;;;-4.70;99.90;;;;;;4927127;29;20050;-82
2023/02/11 03:08:07;;;;;;;19.35;12.45;;;-5.10;99.90;;;;;;4950720;29;20082;-82
2023/02/11 03:10:40;;;;;;;17.55;13.85;;;-5.30;99.90;;;;;;4925551;29;20043;-82
2023/02/11 03:13:10;;;;;;;31.23;12.65;;;-5.20;99.90;;;;;;4918493;29;20050;-82
2023/02/11 03:15:42;;;;;;;21.38;13.63;;;-5.00;99.90;;;;;;4929980;29;20051;-82
2023/02/11 03:18:14;;;;;;;19.50;15.27;;;-4.80;99.90;;;;;;4930397;29;20066;-82
2023/02/11 03:20:49;;;;;;;26.05;13.75;;;-4.80;99.90;;;;;;4899732;29;20062;-78
2023/02/11 03:23:40;;;;;;;20.10;10.77;;;-4.90;99.90;;;;;;4897878;29;20052;-78
2023/02/11 03:26:17;;;;;;;23.07;12.13;;;-5.10;99.90;;;;;;4918769;29;20048;-78
2023/02/11 03:28:53;;;;;;;16.73;12.25;;;-5.20;99.90;;;;;;4915973;29;20295;-78
2023/02/11 03:31:38;;;;;;;16.90;13.60;;;-5.10;99.90;;;;;;4933825;29;20055;-78
2023/02/11 03:34:11;;;;;;;7.72;6.97;;;-5.00;99.90;;;;;;4901071;29;20040;-78
2023/02/11 03:36:55;;;;;;;14.77;11.60;;;-4.90;99.90;;;;;;4898704;29;20040;-83
2023/02/11 03:39:29;;;;;;;17.77;11.95;;;-4.70;99.90;;;;;;4917136;29;20066;-83
2023/02/11 03:41:59;;;;;;;26.02;13.27;;;-4.70;99.90;;;;;;4934197;29;20055;-82
2023/02/11 03:44:33;;;;;;;15.40;9.70;;;-4.60;99.90;;;;;;4933403;29;20060;-83
2023/02/11 03:47:04;;;;;;;19.55;11.45;;;-4.50;99.90;;;;;;4914969;29;20064;-82
2023/02/11 03:49:34;;;;;;;14.77;10.93;;;-4.70;99.90;;;;;;4934401;29;20051;-82
2023/02/11 03:52:35;;;;;;;17.10;11.98;;;-4.80;99.90;;;;;;4918812;29;20056;-83
2023/02/11 03:55:10;;;;;;;12.95;8.32;;;-5.00;99.90;;;;;;4940446;29;20050;-83
2023/02/11 03:57:38;;;;;;;19.30;10.00;;;-5.10;99.90;;;;;;4949821;29;20054;-83
2023/02/11 04:00:07;;;;;;;21.33;12.65;;;-4.90;99.90;;;;;;4920802;29;20047;-83
2023/02/11 04:02:38;;;;;;;;;;;-4.80;99.90;;;;;;4956191;28;20049;-84
2023/02/11 04:05:07;;;;;;;11.35;9.07;;;-4.90;99.90;;;;;;4940280;29;20326;-83
2023/02/11 04:07:35;;;;;;;12.05;10.82;;;-5.10;99.90;;;;;;4952485;29;20054;-83
2023/02/11 04:10:03;;;;;;;19.45;10.98;;;-5.20;99.90;;;;;;4945064;29;20054;-83
2023/02/11 04:12:31;;;;;;;15.63;11.30;;;-5.20;99.90;;;;;;4974088;28;20034;-82
2023/02/11 04:14:59;;;;;;;10.80;8.45;;;-5.10;99.90;;;;;;4976784;28;20035;-84
2023/02/11 04:17:26;;;;;;;21.10;13.32;;;-5.00;99.90;;;;;;4950604;28;20311;-85
2023/02/11 04:19:54;;;;;;;18.73;10.57;;;-5.00;99.90;;;;;;4960041;28;20048;-84
2023/02/11 04:22:21;;;;;;;12.15;9.63;;;-5.00;99.90;;;;;;4964118;28;20035;-84
2023/02/11 04:24:49;;;;;;;16.90;11.43;;;-4.90;99.90;;;;;;4961679;28;20035;-85
2023/02/11 04:27:17;;;;;;;20.08;10.43;;;-4.80;99.90;;;;;;4977195;28;20062;-85
2023/02/11 04:29:44;;;;;;;12.15;8.85;;;-4.80;99.90;;;;;;4961982;29;20039;-85
2023/02/11 04:32:12;;;;;;;16.25;9.77;;;-4.90;99.90;;;;;;4943099;28;20055;-84
2023/02/11 04:34:40;;;;;;;13.18;8.77;;;-5.10;99.90;;;;;;4958825;28;20055;-85
2023/02/11 04:37:08;;;;;;;12.32;10.40;;;-5.10;99.90;;;;;;4962601;28;20043;-85
2023/02/11 04:39:36;;;;;;;13.35;9.77;;;-5.10;99.90;;;;;;4950741;28;20806;-84
2023/02/11 04:42:04;;;;;;;12.25;9.88;;;-5.00;99.90;;;;;;4937262;28;20063;-84
2023/02/11 04:44:32;;;;;;;13.13;9.32;;;-5.00;99.90;;;;;;4916082;29;20058;-85
2023/02/11 04:47:00;;;;;;;13.73;10.00;;;-5.10;99.90;;;;;;4964203;28;20424;-84
2023/02/11 04:49:27;;;;;;;15.30;9.18;;;-5.20;99.90;;;;;;4930299;29;20546;-84
2023/02/11 04:51:55;;;;;;;14.38;10.10;;;-5.10;99.90;;;;;;4919892;29;20044;-85
2023/02/11 04:54:23;;;;;;;11.80;10.13;;;-5.10;99.90;;;;;;4947313;28;20051;-84
2023/02/11 04:56:53;;;;;;;13.05;9.10;;;-5.10;99.90;;;;;;4931978;29;20054;-85
2023/02/11 04:59:21;;;;;;;17.30;8.95;;;-5.30;99.90;;;;;;4916830;29;20055;-84
2023/02/11 05:01:48;;;;;;;13.90;8.43;;;-5.40;99.90;;;;;;4933119;28;20070;-85
2023/02/11 05:04:17;;;;;;;16.88;10.35;;;-5.40;99.90;;;;;;4945789;29;20051;-85
2023/02/11 05:06:44;;;;;;;14.18;10.25;;;-5.40;99.90;;;;;;4932366;29;20416;-85
2023/02/11 05:09:13;;;;;;;12.73;8.85;;;-5.30;99.90;;;;;;4930226;29;20452;-85
2023/02/11 05:11:40;;;;;;;15.85;10.07;;;-5.10;99.90;;;;;;4915410;29;20066;-84
2023/02/11 05:14:08;;;;;;;9.82;8.82;;;-5.10;99.90;;;;;;4940331;28;20048;-85
2023/02/11 05:16:36;;;;;;;14.65;8.82;;;-5.30;99.90;;;;;;4936130;29;20043;-85
2023/02/11 05:19:04;;;;;;;14.93;9.18;;;-5.40;99.90;;;;;;4931567;29;20512;-85
2023/02/11 05:21:33;;;;;;;24.02;9.82;;;-5.40;99.90;;;;;;4931194;29;20047;-85
2023/02/11 05:24:00;;;;;;;13.27;7.97;;;-5.30;99.90;;;;;;4913124;29;20051;-85
2023/02/11 05:26:28;;;;;;;11.43;7.90;;;-5.20;99.90;;;;;;4948526;29;20047;-85
2023/02/11 05:28:56;;;;;;;11.05;6.88;;;-5.00;99.90;;;;;;4938253;29;20412;-84
2023/02/11 05:31:25;;;;;;;11.07;7.57;;;-4.90;99.90;;;;;;4942157;29;20435;-84
2023/02/11 05:33:52;;;;;;;11.40;7.50;;;-4.80;99.90;;;;;;4930040;29;20416;-84
2023/02/11 05:36:20;;;;;;;10.73;8.07;;;-4.70;99.90;;;;;;4936726;28;20047;-85
2023/02/11 05:38:49;;;;;;;14.82;8.40;;;-4.50;99.90;;;;;;4930462;29;20055;-85
2023/02/11 05:41:17;;;;;;;15.02;9.27;;;-4.20;99.90;;;;;;4925583;29;20043;-84
2023/02/11 05:43:49;;;;;;;12.93;7.40;;;-3.90;99.90;;;;;;4946796;29;20066;-84
2023/02/11 05:46:17;;;;;;;11.13;9.00;;;-3.60;99.90;;;;;;4934624;29;20039;-84
2023/02/11 05:48:45;;;;;;;11.05;7.45;;;-3.50;99.90;;;;;;4939344;29;20043;-85
2023/02/11 05:51:13;;;;;;;13.18;9.23;;;-3.30;99.90;;;;;;4896661;29;20075;-85
2023/02/11 05:53:40;;;;;;;18.30;9.07;;;-3.00;99.90;;;;;;4930188;29;20408;-85
2023/02/11 05:56:09;;;;;;;8.57;6.32;;;-2.60;99.90;;;;;;4930967;29;20070;-84
2023/02/11 05:58:37;;;;;;;10.73;9.60;;;-2.40;99.90;;;;;;4939148;29;20508;-84
2023/02/11 06:01:05;;;;;;;12.40;7.97;;;-2.60;99.90;;;;;;4915078;29;20045;-84
2023/02/11 06:03:32;;;;;;;10.07;7.03;;;-2.70;99.90;;;;;;4930448;29;20062;-84
2023/02/11 06:06:00;;;;;;;10.02;7.03;;;-2.60;99.90;;;;;;4947761;29;20055;-84
2023/02/11 06:08:28;;;;;;;10.68;7.43;;;-2.60;99.90;;;;;;4937160;29;20455;-84
2023/02/11 06:10:55;;;;;;;10.73;8.35;;;-2.50;99.90;;;;;;4939985;29;20055;-84
2023/02/11 06:13:23;;;;;;;12.20;7.28;;;-2.50;99.90;;;;;;4933999;28;20047;-84
2023/02/11 06:16:01;;;;;;;11.20;6.45;;;-2.40;99.90;;;;;;4931240;29;20124;-84
2023/02/11 06:18:28;;;;;;;13.88;8.35;;;-2.50;99.90;;;;;;4940747;29;20062;-84
2023/02/11 06:21:00;;;;;;;12.38;7.72;;;-2.60;99.90;;;;;;4930611;29;20048;-84
2023/02/11 06:23:27;;;;;;;11.25;6.78;;;-2.60;99.90;;;;;;4949637;29;20059;-84
2023/02/11 06:26:04;;;;;;;11.05;7.22;;;-2.60;99.90;;;;;;4929034;29;20047;-84
2023/02/11 06:28:34;;;;;;;10.07;6.72;;;-2.50;99.90;;;;;;4929895;29;20487;-84
2023/02/11 06:31:08;;;;;;;10.88;7.75;;;-2.50;99.90;;;;;;4930887;29;20059;-84
2023/02/11 06:33:37;;;;;;;11.57;8.73;;;-2.50;99.90;;;;;;4928236;29;20051;-84
2023/02/11 06:36:13;;;;;;;15.23;10.38;;;-2.50;99.90;;;;;;4911215;29;20052;-84
2023/02/11 06:38:42;;;;;;;11.23;8.48;;;-2.50;99.90;;;;;;4912867;29;20250;-84
2023/02/11 06:41:11;;;;;;;13.80;8.75;;;-2.30;99.90;;;;;;4947938;28;20051;-84
2023/02/11 06:43:39;;;;;;;15.07;9.93;;;-2.40;99.90;;;;;;4930263;29;20451;-84
2023/02/11 06:46:07;;;;;;;15.02;8.82;;;-2.40;99.90;;;;;;4921961;28;20047;-84
2023/02/11 06:48:35;;;;;;;16.45;11.13;;;-2.30;99.90;;;;;;4916217;29;20039;-84
2023/02/11 06:51:04;;;;;;;17.75;11.82;;;-2.40;99.90;;;;;;4930284;29;20058;-84
2023/02/11 06:53:36;;;;;;;13.60;8.43;;;-2.50;99.90;;;;;;4935801;28;20043;-84
2023/02/11 06:56:05;;;;;;;;;;;-2.50;99.90;;;;;;4944134;29;20055;-84
2023/02/11 06:58:33;;;;;;;13.68;12.32;;;-2.50;99.90;;;;;;4929263;29;19933;-84
2023/02/11 07:01:11;;;;;;;15.77;10.18;;;-2.50;99.90;;;;;;4914541;29;20043;-84
2023/02/11 07:03:42;;;;;;;6.40;5.82;;;-2.50;99.90;;;;;;4939242;29;20062;-84
2023/02/11 07:06:16;;;;;;;10.73;9.32;;;-2.60;99.90;;;;;;4929511;29;20417;-83
2023/02/11 07:08:45;;;;;;;11.43;7.32;;;-2.70;99.90;;;;;;4942664;29;20040;-84
2023/02/11 07:11:18;;;;;;;17.23;10.18;;;-2.70;99.90;;;;;;4944343;29;20047;-83
2023/02/11 07:13:46;;;;;;;12.23;9.45;;;-2.60;99.90;;;;;;4929741;29;20058;-83
2023/02/11 07:16:16;;;;;;;15.52;11.05;;;-2.50;99.90;;;;;;4932502;28;20397;-83
2023/02/11 07:18:45;;;;;;;13.75;11.13;;;-2.40;99.90;;;;;;4928733;29;20062;-83
2023/02/11 07:21:16;;;;;;;16.90;12.55;;;-2.30;99.90;;;;;;4905500;29;20058;-84
2023/02/11 07:23:44;;;;;;;17.20;11.93;;;-2.30;99.90;;;;;;4942275;29;20059;-84
2023/02/11 07:26:14;;;;;;;22.83;14.30;;;-2.20;99.90;;;;;;4934517;28;20287;-84
2023/02/11 07:28:43;;;;;;;17.97;12.17;;;-2.20;99.90;;;;;;4917948;29;20048;-83
2023/02/11 07:31:20;;;;;;;20.45;13.23;;;-2.10;99.90;;;;;;4940199;29;20404;-84
2023/02/11 07:33:50;;;;;;;12.80;9.68;;;-2.00;99.90;;;;;;4928024;29;20039;-84
2023/02/11 07:36:18;;;;;;;10.02;9.13;;;-1.90;99.90;;;;;;4935060;29;20048;-84
2023/02/11 07:38:49;;;;;;;19.92;10.35;;;-1.70;99.90;;;;;;4928560;29;20056;-83
2023/02/11 07:41:20;;;;;;;16.65;11.13;;;-1.70;99.90;;;;;;4931788;29;20043;-83
2023/02/11 07:43:51;;;;;;;17.00;12.25;;;-1.80;99.90;;;;;;4950225;29;20882;-84
2023/02/11 07:46:24;;;;;;;23.20;12.25;;;-1.80;99.90;;;;;;4936084;29;20051;-84
2023/02/11 07:48:52;;;;;;;18.05;13.77;;;-1.70;99.90;;;;;;4942655;29;20662;-82
2023/02/11 07:51:22;;;;;;;16.02;11.65;;;-1.70;99.90;;;;;;4917129;29;20059;-83
2023/02/11 07:53:50;;;;;;;17.67;12.77;;;-1.50;99.90;;;;;;4937096;28;20424;-82
2023/02/11 07:56:19;;;;;;;19.92;13.65;;;-1.40;99.90;;;;;;4948848;29;20066;-82
2023/02/11 07:58:48;;;;;;;13.90;8.95;;;-1.20;99.90;;;;;;4917283;29;20051;-82
2023/02/11 08:01:23;;;;;;;14.55;8.93;;;-1.00;99.90;;;;;;4936476;29;20498;-82
2023/02/11 08:03:52;;;;;;;12.63;11.15;;;-0.80;99.90;;;;;;4938557;29;20067;-83
2023/02/11 08:06:21;;;;;;;15.90;10.70;;;-0.80;99.90;;;;;;4932481;29;20048;-82
2023/02/11 08:08:52;;;;;;;15.27;10.02;;;-0.80;99.90;;;;;;4943108;29;20420;-82
2023/02/11 08:11:24;;;;;;;24.80;16.60;;;-0.70;99.90;;;;;;4945672;29;20056;-82
2023/02/11 08:13:54;;;;;;;12.57;8.60;;;-0.60;99.90;;;;;;4926533;29;20760;-82
2023/02/11 08:16:25;;;;;;;10.05;8.80;;;-0.50;99.90;;;;;;4917018;29;20412;-82
2023/02/11 08:18:54;;;;;;;8.27;6.32;;;-0.30;99.90;;;;;;4932266;29;20058;-82
2023/02/11 08:21:22;;;;;;;18.08;9.50;;;-0.20;99.90;;;;;;4932787;29;20039;-82
2023/02/11 08:23:51;;;;;;;13.57;9.23;;;0.00;99.90;;;;;;4931651;29;20051;-82
2023/02/11 08:26:21;;;;;;;8.13;7.15;;;0.20;99.90;;;;;;4948379;29;20423;-82
2023/02/11 08:28:51;;;;;;;14.57;10.23;;;0.30;99.90;;;;;;4951470;29;20047;-82
2023/02/11 08:31:22;;;;;;;11.55;8.73;;;0.30;99.90;;;;;;4951034;29;20424;-81
2023/02/11 08:33:50;;;;;;;14.03;9.13;;;0.30;99.90;;;;;;4935372;29;20054;-82
2023/02/11 08:36:21;;;;;;;14.48;10.98;;;0.20;99.90;;;;;;4948248;29;20424;-82
2023/02/11 08:38:48;;;;;;;17.40;10.75;;;0.30;99.90;;;;;;4945547;29;20050;-82
2023/02/11 08:41:17;;;;;;;11.77;8.07;;;0.30;99.90;;;;;;4930701;29;20047;-82
2023/02/11 08:43:46;;;;;;;16.40;9.43;;;0.30;99.90;;;;;;4935610;29;20093;-82
2023/02/11 08:46:16;;;;;;;13.13;7.97;;;0.20;99.90;;;;;;4961910;28;20058;-82
2023/02/11 08:48:44;;;;;;;13.02;7.90;;;0.10;99.90;;;;;;4931876;29;20412;-81
2023/02/11 08:51:15;;;;;;;14.27;9.50;;;0.00;99.90;;;;;;4949297;28;20047;-83
2023/02/11 08:53:43;;;;;;;10.07;8.45;;;0.00;99.90;;;;;;4930348;29;20060;-83
2023/02/11 08:56:11;;;;;;;15.80;8.45;;;0.00;99.90;;;;;;4953441;28;20054;-81
2023/02/11 08:58:40;;;;;;;12.07;9.75;;;0.00;99.90;;;;;;4940024;29;20051;-84
2023/02/11 09:01:13;;;;;;;14.63;12.57;;;0.10;99.90;;;;;;4941146;29;20412;-82
2023/02/11 09:03:41;;;;;;;14.02;11.07;;;0.10;99.90;;;;;;4934806;29;20059;-82
2023/02/11 09:06:10;;;;;;;11.70;8.38;;;0.20;99.90;;;;;;4947809;29;20078;-82
2023/02/11 09:08:40;;;;;;;13.35;8.85;;;0.30;99.90;;;;;;4912349;29;20054;-82
2023/02/11 09:11:09;;;;;;;12.10;8.27;;;0.40;99.90;;;;;;4950116;29;20055;-81
2023/02/11 09:13:39;;;;;;;15.18;10.50;;;0.40;99.90;;;;;;4947420;28;20234;-81
2023/02/11 09:16:07;;;;;;;14.43;9.77;;;0.60;99.90;;;;;;4950144;29;20059;-83
2023/02/11 09:18:34;;;;;;;9.13;7.82;;;0.80;99.90;;;;;;4950463;29;20237;-83
2023/02/11 09:21:04;;;;;;;10.68;7.93;;;0.90;99.90;;;;;;4945456;29;20047;-82
2023/02/11 09:23:35;;;;;;;14.20;8.82;;;1.10;99.90;;;;;;4939606;29;20054;-83
2023/02/11 09:26:07;;;;;;;13.73;8.23;;;1.20;99.90;;;;;;4934533;29;20048;-83
2023/02/11 09:28:35;;;;;;;14.35;9.00;;;1.20;99.90;;;;;;4919696;29;20047;-83
2023/02/11 09:31:07;;;;;;;9.90;7.72;;;1.30;99.90;;;;;;4947395;29;20050;-83
2023/02/11 09:33:36;;;;;;;15.20;8.32;;;1.40;99.90;;;;;;4934524;29;20055;-82
2023/02/11 09:36:05;;;;;;;11.60;7.78;;;1.40;99.90;;;;;;4934385;29;20062;-84
2023/02/11 09:38:33;;;;;;;11.88;9.20;;;1.40;99.90;;;;;;4930063;29;20051;-83
2023/02/11 09:41:06;;;;;;;18.08;9.85;;;1.40;99.90;;;;;;4916741;29;20039;-82
2023/02/11 09:43:45;;;;;;;17.73;9.48;;;1.50;99.90;;;;;;4952881;29;20062;-83
2023/02/11 09:46:15;;;;;;;14.45;9.65;;;1.50;99.90;;;;;;4936075;29;20040;-83
2023/02/11 09:48:46;;;;;;;10.50;9.43;;;1.60;99.90;;;;;;4952951;29;20050;-82
2023/02/11 09:51:34;;;;;;;20.40;9.25;;;1.70;99.90;;;;;;4937146;29;20043;-83
2023/02/11 09:54:18;;;;;;;14.63;7.72;;;1.70;99.90;;;;;;4947996;28;20052;-83
2023/02/11 09:56:46;;;;;;;12.93;8.57;;;1.80;99.90;;;;;;4930927;29;20047;-82
2023/02/11 09:59:16;;;;;;;11.15;8.23;;;1.80;99.90;;;;;;4921244;29;20051;-84
2023/02/11 10:02:03;;;;;;;11.63;8.13;;;1.90;99.90;;;;;;4950625;28;20055;-83
2023/02/11 10:04:43;;;;;;;11.70;8.77;;;2.00;99.90;;;;;;4943042;29;20062;-85
2023/02/11 10:07:29;;;;;;;11.18;8.55;;;2.10;99.90;;;;;;4936417;29;20431;-84
2023/02/11 10:09:57;;;;;;;14.70;7.85;;;2.30;99.90;;;;;;4934125;28;20074;-84
2023/02/11 10:13:02;;;;;;;12.68;7.43;;;2.40;99.90;;;;;;4937948;29;20055;-84
2023/02/11 10:15:47;;;;;;;10.70;8.63;;;2.60;99.90;;;;;;4954245;29;20054;-84
2023/02/11 10:18:49;;;;;;;10.90;6.93;;;3.10;99.90;;;;;;4926130;28;20046;-83
2023/02/11 10:26:15;;;;;;;10.60;7.32;;;3.40;99.90;;;;;;4945197;29;20407;-83
2023/02/11 10:28:44;;;;;;;;;;;3.40;99.90;;;;;;4906769;29;20403;-84
2023/02/11 10:31:19;;;;;;;10.25;7.32;;;3.50;99.90;;;;;;4955755;29;19934;-84
2023/02/11 10:34:08;;;;;;;16.40;9.45;;;3.70;99.90;;;;;;4945811;29;20047;-85
2023/02/11 10:36:41;;;;;;;14.68;9.85;;;4.00;99.90;;;;;;4946806;29;20047;-84
2023/02/11 10:39:16;;;;;;;13.60;9.43;;;4.20;99.90;;;;;;4959196;29;20031;-84
2023/02/11 10:42:06;;;;;;;14.48;7.20;;;4.10;99.90;;;;;;4951149;29;20039;-85
2023/02/11 10:44:40;;;;;;;11.48;8.23;;;4.20;99.90;;;;;;4951518;28;20035;-84
2023/02/11 10:47:23;;;;;;;11.32;7.75;;;4.30;99.90;;;;;;4956177;29;20049;-85
2023/02/11 10:49:51;;;;;;;14.95;8.00;;;4.50;99.90;;;;;;4943602;29;20041;-85
2023/02/11 10:52:27;;;;;;;12.48;7.75;;;4.50;99.90;;;;;;4955489;28;20039;-86
2023/02/11 10:55:00;;;;;;;14.88;10.73;;;4.50;99.90;;;;;;4940329;29;20050;-86
2023/02/11 10:57:35;;;;;;;14.73;8.93;;;4.60;99.90;;;;;;4956170;28;20047;-82
2023/02/11 11:00:35;;;;;;;9.43;7.90;;;4.90;99.90;;;;;;4975202;28;20051;-87
2023/02/11 11:03:24;;;;;;;20.75;11.50;;;5.10;99.40;;;;;;4958981;29;20057;-87
2023/02/11 11:05:59;;;;;;;14.68;9.20;;;5.00;97.00;;;;;;4974994;29;20039;-88
2023/02/11 11:09:00;;;;;;;19.80;9.50;;;5.00;95.50;;;;;;4934851;29;20073;-89
2023/02/11 11:11:28;;;;;;;12.20;8.55;;;5.30;93.40;;;;;;4911580;28;20063;-89
2023/02/11 11:13:58;;;;;;;16.38;10.20;;;5.30;92.50;;;;;;4958262;28;20035;-90
2023/02/11 11:16:31;;;;;;;10.50;7.93;;;5.10;93.30;;;;;;4940843;29;20037;-87
2023/02/11 11:19:07;;;;;;;10.32;7.35;;;5.10;92.80;;;;;;4965678;28;20297;-90
2023/02/11 11:21:49;;;;;;;14.38;7.50;;;5.40;94.00;;;;;;4951633;29;20043;-90
2023/02/11 11:24:19;;;;;;;13.20;7.55;;;5.50;94.30;;;;;;4955480;29;20043;-89
2023/02/11 11:26:56;;;;;;;11.95;8.48;;;5.50;92.50;;;;;;4962639;29;20049;-91
2023/02/11 11:29:54;;;;;;;10.10;7.38;;;5.40;94.00;;;;;;4960039;28;20418;-91
2023/02/11 11:32:31;;;;;;;14.48;6.57;;;5.40;94.20;;;;;;4896355;29;20066;-91
2023/02/11 11:35:04;;;;;;;8.55;7.13;;;5.50;95.00;;;;;;4930761;29;20066;-92
2023/02/11 11:37:35;;;;;;;8.82;6.13;;;5.50;94.20;;;;;;4932110;29;20404;-92
2023/02/11 11:40:14;;;;;;;14.00;8.55;;;5.40;93.10;;;;;;4933347;29;20500;-91
2023/02/11 11:42:43;;;;;;;12.73;9.52;;;5.40;90.90;;;;;;4936843;29;20106;-90
2023/02/11 11:45:21;;;;;;;9.32;7.60;;;5.40;92.30;;;;;;4943402;28;20411;-92
2023/02/11 11:47:55;;;;;;;11.52;7.60;;;5.40;92.90;;;;;;4937631;29;20067;-91
2023/02/11 11:50:42;;;;;;;15.30;7.25;;;5.40;91.00;;;;;;4949678;29;20050;-93
2023/02/11 11:53:21;;;;;;;9.25;6.15;;;5.40;91.00;;;;;;4929527;28;20043;-92
2023/02/11 11:56:21;;;;;;;12.48;8.07;;;5.30;91.50;;;;;;4931425;28;20062;-92
2023/02/11 11:58:49;;;;;;;13.15;6.93;;;5.20;91.20;;;;;;4927151;29;20055;-90
2023/02/11 12:01:35;;;;;;;13.15;7.32;;;5.10;91.10;;;;;;4932045;29;20400;-92
2023/02/11 12:04:12;;;;;;;10.95;8.13;;;5.10;91.60;;;;;;4938231;29;20411;-92
2023/02/11 12:07:17;;;;;;;9.95;6.28;;;5.20;90.50;;;;;;4943073;29;20054;-92
2023/02/11 12:10:19;;;;;;;10.80;7.28;;;5.20;91.10;;;;;;4931575;29;20420;-91
2023/02/11 12:12:50;;;;;;;8.98;6.68;;;5.20;93.80;;;;;;4932937;29;20055;-91
2023/02/11 12:15:29;;;;;;;10.88;6.93;;;5.40;96.20;;;;;;4951207;29;20518;-92
2023/02/11 12:18:08;;;;;;;13.57;8.65;;;5.50;94.40;;;;;;4930340;29;20066;-92
2023/02/11 12:21:00;;;;;;;15.20;7.57;;;5.40;96.20;;;;;;4932462;29;20058;-90
2023/02/11 12:23:50;;;;;;;12.27;6.68;;;5.20;95.90;;;;;;4932069;29;20067;-92
2023/02/11 12:26:25;;;;;;;17.02;9.73;;;5.20;95.40;;;;;;4915055;29;20039;-92
2023/02/11 12:29:14;;;;;;;15.45;8.88;;;5.20;95.30;;;;;;4932810;29;20059;-93
2023/02/11 12:32:23;;;;;;;14.23;7.82;;;5.10;95.40;;;;;;4936805;29;20055;-92
2023/02/11 12:35:25;;;;;;;13.18;7.50;;;5.10;97.10;;;;;;4892765;29;20182;-91
2023/02/11 12:38:31;;;;;;;;;;;5.00;97.70;;;;;;4937003;29;20055;-94
2023/02/11 12:44:54;;;;;;;10.38;6.55;;;5.20;96.10;;;;;;4837276;29;20053;-89
2023/02/11 12:47:49;;;;;;;18.90;8.65;;;5.20;95.70;;;;;;4949699;28;20058;-92
2023/02/11 12:50:39;;;;;;;18.38;9.18;;;5.20;96.70;;;;;;4915462;29;20051;-92
2023/02/11 12:53:33;;;;;;;13.60;7.97;;;5.20;95.60;;;;;;4933666;28;20047;-91
2023/02/11 12:56:28;;;;;;;16.15;9.48;;;5.30;94.60;;;;;;4935749;29;20047;-93
2023/02/11 12:58:59;;;;;;;19.70;7.90;;;5.40;94.60;;;;;;4909181;28;20047;-90
2023/02/11 13:01:39;;;;;;;25.60;9.57;;;5.50;94.90;;;;;;4942468;28;20058;-91
2023/02/11 13:04:20;;;;;;;9.82;6.85;;;5.60;94.10;;;;;;4937228;29;20062;-91
2023/02/11 13:06:52;;;;;;;22.52;8.98;;;5.60;94.40;;;;;;4933583;29;20051;-90
2023/02/11 13:09:30;;;;;;;19.15;8.43;;;5.70;94.80;;;;;;4914473;29;20051;-92
2023/02/11 13:13:15;;;;;;;15.38;7.22;;;5.50;97.70;;;;;;4941099;28;20068;-90
2023/02/11 13:14:53;;;;;;;12.60;7.18;;;5.40;95.60;;;;;;4930212;29;20055;-91
2023/02/11 13:17:27;;;;;;;21.77;8.93;;;5.50;94.90;;;;;;4934462;29;20048;-91
2023/02/11 13:20:12;;;;;;;11.95;6.80;;;5.60;94.80;;;;;;4931247;29;20047;-91
2023/02/11 13:22:49;;;;;;;15.68;9.52;;;5.60;93.90;;;;;;4925431;29;20070;-91
2023/02/11 13:25:41;;;;;;;16.58;8.18;;;5.50;95.50;;;;;;4908725;29;20051;-90